Time;durP1;ratioP1;P1;durP2;ratioP2;P2;SDS_P1;SDS_P2;PMS_P1;PMS_P2;Temp;Humidity;BMP_temperature;BMP_pressure;BME280_temperature;BME280_humidity;BME280_pressure;Samples;Min_cycle;Max_cycle;Signal;HPM_P1;HPM_P2
2022/05/01 00:00:23;;;;;;;13.30;11.25;;;;;;;;;;5010763;28;93330;-77
2022/05/01 00:02:49;;;;;;;18.80;12.40;;;;;;;;;;5014586;28;94417;-78
2022/05/01 00:05:16;;;;;;;20.45;12.00;;;;;;;;;;5020144;28;94135;-78
2022/05/01 00:07:43;;;;;;;13.43;11.95;;;;;;;;;;5014680;28;95593;-78
2022/05/01 00:10:10;;;;;;;15.93;11.65;;;;;;;;;;5020419;28;94662;-78
2022/05/01 00:12:36;;;;;;;15.80;12.57;;;;;;;;;;5015922;28;92869;-77
2022/05/01 00:15:05;;;;;;;15.93;12.40;;;;;;;;;;5013240;28;93888;-77
2022/05/01 00:17:32;;;;;;;15.10;11.52;;;;;;;;;;5017932;28;93201;-78
2022/05/01 00:19:58;;;;;;;16.55;11.52;;;;;;;;;;5011802;28;94946;-77
2022/05/01 00:22:25;;;;;;;14.93;11.68;;;;;;;;;;5012074;28;94164;-78
2022/05/01 00:24:51;;;;;;;12.85;10.88;;;;;;;;;;5011928;28;93091;-77
2022/05/01 00:27:18;;;;;;;15.25;11.65;;;;;;;;;;5017236;28;92938;-78
2022/05/01 00:29:44;;;;;;;13.82;11.73;;;;;;;;;;4992487;28;94510;-78
2022/05/01 00:32:11;;;;;;;12.68;11.45;;;;;;;;;;5008530;28;96341;-78
2022/05/01 00:37:23;;;;;;;22.17;12.60;;;;;;;;;;5014410;28;94140;-78
2022/05/01 00:39:49;;;;;;;15.70;12.30;;;;;;;;;;5011010;28;94555;-77
2022/05/01 00:42:16;;;;;;;15.43;12.18;;;;;;;;;;5011011;28;93994;-77
2022/05/01 00:44:42;;;;;;;19.55;12.95;;;;;;;;;;5011268;28;95627;-78
2022/05/01 00:47:09;;;;;;;14.80;11.70;;;;;;;;;;5011949;28;93683;-77
2022/05/01 00:49:35;;;;;;;14.73;12.30;;;;;;;;;;5014007;28;93888;-77
2022/05/01 00:52:09;;;;;;;19.17;13.32;;;;;;;;;;5013651;28;93153;-78
2022/05/01 00:54:39;;;;;;;18.88;11.93;;;;;;;;;;5012326;28;93269;-78
2022/05/01 00:57:06;;;;;;;13.68;11.85;;;;;;;;;;5013666;28;97972;-78
2022/05/01 00:59:35;;;;;;;13.35;12.05;;;;;;;;;;5012829;28;92594;-78
2022/05/01 01:02:02;;;;;;;13.82;12.52;;;;;;;;;;5010599;28;93740;-78
2022/05/01 01:04:29;;;;;;;16.58;12.13;;;;;;;;;;5010166;28;94020;-78
2022/05/01 01:06:55;;;;;;;14.98;12.75;;;;;;;;;;5011820;28;95037;-78
2022/05/01 01:09:21;;;;;;;15.82;12.32;;;;;;;;;;5014329;28;94412;-78
2022/05/01 01:12:53;;;;;;;14.55;13.00;;;;;;;;;;5012415;28;93166;-78
2022/05/01 01:14:34;;;;;;;14.40;12.55;;;;;;;;;;5017005;28;94051;-78
2022/05/01 01:17:00;;;;;;;15.25;13.32;;;;;;;;;;5010801;28;94316;-78
2022/05/01 01:19:27;;;;;;;13.50;12.18;;;;;;;;;;5008066;28;94057;-78
2022/05/01 01:21:53;;;;;;;14.73;12.95;;;;;;;;;;5009551;28;96256;-78
2022/05/01 01:24:20;;;;;;;14.55;13.13;;;;;;;;;;5005944;28;94619;-78
2022/05/01 01:26:46;;;;;;;14.65;13.07;;;;;;;;;;5011070;28;93009;-78
2022/05/01 01:31:58;;;;;;;15.68;13.65;;;;;;;;;;5013869;28;94190;-78
2022/05/01 01:34:29;;;;;;;14.65;12.98;;;;;;;;;;5007073;28;93950;-78
2022/05/01 01:36:56;;;;;;;14.50;12.93;;;;;;;;;;5009163;28;93742;-78
2022/05/01 01:39:23;;;;;;;17.27;14.35;;;;;;;;;;5014213;28;91817;-78
2022/05/01 01:41:51;;;;;;;15.05;13.32;;;;;;;;;;5009508;28;93403;-78
2022/05/01 01:44:18;;;;;;;15.95;14.15;;;;;;;;;;5017864;28;94205;-78
2022/05/01 01:46:44;;;;;;;20.45;14.25;;;;;;;;;;5007518;28;96703;-78
2022/05/01 01:49:11;;;;;;;16.95;14.35;;;;;;;;;;5013940;28;96754;-78
2022/05/01 01:51:38;;;;;;;20.02;14.02;;;;;;;;;;5014060;28;96136;-78
2022/05/01 01:54:06;;;;;;;16.95;14.35;;;;;;;;;;5018758;28;92515;-78
2022/05/01 01:56:36;;;;;;;18.10;14.32;;;;;;;;;;5015424;28;94619;-78
2022/05/01 01:59:03;;;;;;;19.27;15.20;;;;;;;;;;5011917;28;93966;-78
2022/05/01 02:01:30;;;;;;;17.48;15.63;;;;;;;;;;5018890;28;94315;-78
2022/05/01 02:03:57;;;;;;;17.00;14.80;;;;;;;;;;5017877;27;93366;-78
2022/05/01 02:06:23;;;;;;;18.90;14.77;;;;;;;;;;5011154;28;93417;-78
2022/05/01 02:08:49;;;;;;;17.95;14.63;;;;;;;;;;5012863;28;94564;-78
2022/05/01 02:11:17;;;;;;;18.73;15.93;;;;;;;;;;5017252;28;96961;-78
2022/05/01 02:13:43;;;;;;;20.17;15.43;;;;;;;;;;5012159;28;93723;-78
2022/05/01 02:16:10;;;;;;;17.85;16.15;;;;;;;;;;5018153;28;94437;-78
2022/05/01 02:18:36;;;;;;;26.33;16.70;;;;;;;;;;5014266;28;92497;-78
2022/05/01 02:23:47;;;;;;;18.50;16.25;;;;;;;;;;5011643;28;94610;-78
2022/05/01 02:26:14;;;;;;;18.65;16.25;;;;;;;;;;5012326;28;92573;-78
2022/05/01 02:28:40;;;;;;;24.08;17.50;;;;;;;;;;5011533;28;93742;-78
2022/05/01 02:31:07;;;;;;;25.52;16.77;;;;;;;;;;5012701;27;94235;-78
2022/05/01 02:33:33;;;;;;;21.48;17.50;;;;;;;;;;5021881;28;92522;-77
2022/05/01 02:35:59;;;;;;;27.80;18.70;;;;;;;;;;5019060;28;94880;-78
2022/05/01 02:38:26;;;;;;;21.98;17.15;;;;;;;;;;5018986;28;94524;-78
2022/05/01 02:40:52;;;;;;;18.75;16.77;;;;;;;;;;5012461;28;93811;-78
2022/05/01 02:43:19;;;;;;;23.88;17.88;;;;;;;;;;5014302;28;94962;-78
2022/05/01 02:45:45;;;;;;;25.77;18.55;;;;;;;;;;5012930;28;94250;-78
2022/05/01 02:48:11;;;;;;;31.25;19.52;;;;;;;;;;5009909;28;94846;-78
2022/05/01 02:50:38;;;;;;;26.42;18.52;;;;;;;;;;5013150;28;94259;-78
2022/05/01 02:53:04;;;;;;;21.52;18.17;;;;;;;;;;5013090;28;92961;-78
2022/05/01 02:55:32;;;;;;;22.85;18.73;;;;;;;;;;5010550;28;94441;-78
2022/05/01 02:57:58;;;;;;;21.88;18.88;;;;;;;;;;5016638;28;94337;-78
2022/05/01 03:00:24;;;;;;;24.55;19.00;;;;;;;;;;5013682;28;96515;-78
2022/05/01 03:02:51;;;;;;;23.55;18.33;;;;;;;;;;5010222;28;94172;-78
2022/05/01 03:05:18;;;;;;;24.40;18.08;;;;;;;;;;5015632;28;94848;-77
2022/05/01 03:07:45;;;;;;;22.98;18.45;;;;;;;;;;5011165;28;94107;-78
2022/05/01 03:10:11;;;;;;;24.77;18.77;;;;;;;;;;5013371;28;94281;-78
2022/05/01 03:12:37;;;;;;;29.35;18.50;;;;;;;;;;5015309;28;93108;-78
2022/05/01 03:15:05;;;;;;;25.05;19.05;;;;;;;;;;5013019;28;94876;-78
2022/05/01 03:22:10;;;;;;;26.08;19.10;;;;;;;;;;5014300;28;93392;-78
2022/05/01 03:23:02;;;;;;;21.65;17.90;;;;;;;;;;5008803;28;93217;-77
2022/05/01 03:25:29;;;;;;;24.88;18.52;;;;;;;;;;5009685;28;96466;-78
2022/05/01 03:27:55;;;;;;;28.67;18.98;;;;;;;;;;5010463;28;96436;-78
2022/05/01 03:30:22;;;;;;;20.05;18.08;;;;;;;;;;5010615;28;93298;-77
2022/05/01 03:32:49;;;;;;;21.92;18.50;;;;;;;;;;5010089;28;94384;-77
2022/05/01 03:35:15;;;;;;;28.42;18.33;;;;;;;;;;5010580;28;94411;-78
2022/05/01 03:37:42;;;;;;;22.05;18.63;;;;;;;;;;5010539;28;94488;-78
2022/05/01 03:40:09;;;;;;;22.00;19.65;;;;;;;;;;5015045;28;93909;-78
2022/05/01 03:42:35;;;;;;;25.58;19.50;;;;;;;;;;5017232;28;94024;-77
2022/05/01 03:45:02;;;;;;;23.05;17.35;;;;;;;;;;5010223;27;94464;-78
2022/05/01 03:47:28;;;;;;;20.80;18.30;;;;;;;;;;5008748;28;94531;-78
2022/05/01 03:49:54;;;;;;;25.05;16.85;;;;;;;;;;5009088;28;96145;-78
2022/05/01 03:52:21;;;;;;;21.13;17.38;;;;;;;;;;5012999;28;94368;-77
2022/05/01 03:54:47;;;;;;;21.30;18.20;;;;;;;;;;5015896;28;94349;-78
2022/05/01 03:57:13;;;;;;;19.83;17.77;;;;;;;;;;5017547;28;94013;-77
2022/05/01 03:59:40;;;;;;;22.17;19.05;;;;;;;;;;5013492;28;93830;-78
2022/05/01 04:02:06;;;;;;;22.52;18.35;;;;;;;;;;5011042;28;94048;-78
2022/05/01 04:04:33;;;;;;;19.65;17.35;;;;;;;;;;5015828;28;94700;-78
2022/05/01 04:06:59;;;;;;;21.88;18.02;;;;;;;;;;5012022;28;94352;-78
2022/05/01 04:09:28;;;;;;;19.92;17.85;;;;;;;;;;5011221;27;94152;-78
2022/05/01 04:11:54;;;;;;;21.90;17.60;;;;;;;;;;5017076;28;94141;-78
2022/05/01 04:14:21;;;;;;;24.08;17.35;;;;;;;;;;5013917;28;94943;-78
2022/05/01 04:16:47;;;;;;;19.52;17.27;;;;;;;;;;5011270;28;94136;-78
2022/05/01 04:19:15;;;;;;;18.95;17.05;;;;;;;;;;5014557;28;93264;-78
2022/05/01 04:21:41;;;;;;;19.02;17.08;;;;;;;;;;5012967;28;93820;-78
2022/05/01 04:24:08;;;;;;;20.27;17.58;;;;;;;;;;5011846;28;93773;-78
2022/05/01 04:26:34;;;;;;;27.98;17.60;;;;;;;;;;5013567;28;93015;-78
2022/05/01 04:31:45;;;;;;;20.58;15.57;;;;;;;;;;5015978;28;93206;-78
2022/05/01 04:34:12;;;;;;;18.05;16.15;;;;;;;;;;5010793;28;94873;-77
2022/05/01 04:36:40;;;;;;;18.75;16.63;;;;;;;;;;5011839;28;94457;-77
2022/05/01 04:39:06;;;;;;;18.17;16.27;;;;;;;;;;5008785;28;95069;-77
2022/05/01 04:41:33;;;;;;;21.65;16.40;;;;;;;;;;5014220;28;95765;-77
2022/05/01 04:43:59;;;;;;;18.88;16.92;;;;;;;;;;5013462;28;94559;-77
2022/05/01 04:46:26;;;;;;;23.95;16.42;;;;;;;;;;5009884;28;94834;-77
2022/05/01 04:48:53;;;;;;;21.85;16.23;;;;;;;;;;5018446;28;92873;-78
2022/05/01 04:51:19;;;;;;;18.95;16.95;;;;;;;;;;5013721;28;94293;-77
2022/05/01 04:53:45;;;;;;;21.33;15.90;;;;;;;;;;5006446;28;94130;-77
2022/05/01 04:58:57;;;;;;;16.98;14.73;;;;;;;;;;5008148;28;92989;-77
2022/05/01 05:01:23;;;;;;;19.65;16.27;;;;;;;;;;5006913;28;94013;-77
2022/05/01 05:03:50;;;;;;;18.15;15.68;;;;;;;;;;5010021;28;97043;-77
2022/05/01 05:06:16;;;;;;;20.92;16.52;;;;;;;;;;5006749;28;93823;-77
2022/05/01 05:11:27;;;;;;;18.17;16.15;;;;;;;;;;5008334;28;94251;-78
2022/05/01 05:13:54;;;;;;;17.55;15.75;;;;;;;;;;5009334;28;93616;-78
2022/05/01 05:16:20;;;;;;;17.52;15.65;;;;;;;;;;5008527;28;94962;-78
2022/05/01 05:18:46;;;;;;;17.98;16.00;;;;;;;;;;5014104;27;93175;-78
2022/05/01 05:21:13;;;;;;;19.35;16.92;;;;;;;;;;5010209;28;94028;-78
2022/05/01 05:23:39;;;;;;;23.70;17.35;;;;;;;;;;5009702;28;94361;-78
2022/05/01 05:26:06;;;;;;;21.38;17.73;;;;;;;;;;5010966;27;95011;-77
2022/05/01 05:28:32;;;;;;;20.23;18.13;;;;;;;;;;5010478;28;96397;-77
2022/05/01 05:30:58;;;;;;;24.88;18.05;;;;;;;;;;5014253;28;94626;-77
2022/05/01 05:33:25;;;;;;;18.60;16.10;;;;;;;;;;5011039;28;94071;-77
2022/05/01 05:35:51;;;;;;;19.42;16.58;;;;;;;;;;5010034;28;94267;-77
2022/05/01 05:38:18;;;;;;;21.27;15.77;;;;;;;;;;5013869;28;94256;-77
2022/05/01 05:40:44;;;;;;;18.00;15.35;;;;;;;;;;5013255;28;92623;-78
2022/05/01 05:43:10;;;;;;;17.88;16.08;;;;;;;;;;5013519;28;93474;-78
2022/05/01 05:45:37;;;;;;;24.70;17.10;;;;;;;;;;5009584;28;93151;-78
2022/05/01 05:48:05;;;;;;;20.27;16.05;;;;;;;;;;5011827;28;93981;-78
2022/05/01 05:50:31;;;;;;;16.80;14.85;;;;;;;;;;5008877;27;95013;-78
2022/05/01 05:52:57;;;;;;;19.02;14.35;;;;;;;;;;5012658;28;95686;-78
2022/05/01 05:55:24;;;;;;;16.75;15.13;;;;;;;;;;5011292;28;94239;-78
2022/05/01 05:57:50;;;;;;;17.67;15.55;;;;;;;;;;5008944;28;94124;-78
2022/05/01 06:00:16;;;;;;;17.55;14.90;;;;;;;;;;5014660;28;95015;-78
2022/05/01 06:02:43;;;;;;;18.85;14.25;;;;;;;;;;5028472;28;94246;-78
2022/05/01 06:05:09;;;;;;;16.55;14.57;;;;;;;;;;5031888;28;93544;-78
2022/05/01 06:07:36;;;;;;;16.17;14.18;;;;;;;;;;5016096;28;94664;-78
2022/05/01 06:10:02;;;;;;;14.30;12.90;;;;;;;;;;5012876;28;92872;-78
2022/05/01 06:12:29;;;;;;;16.33;13.32;;;;;;;;;;5011478;28;92592;-78
2022/05/01 06:14:55;;;;;;;14.25;12.85;;;;;;;;;;5012232;28;93942;-78
2022/05/01 06:17:21;;;;;;;16.10;13.13;;;;;;;;;;5009978;28;95845;-78
2022/05/01 06:19:48;;;;;;;18.20;12.95;;;;;;;;;;5011800;28;96368;-78
2022/05/01 06:22:15;;;;;;;14.02;12.60;;;;;;;;;;5012807;28;93971;-78
2022/05/01 06:24:41;;;;;;;10.88;9.88;;;;;;;;;;5012109;28;94050;-76
2022/05/01 06:27:07;;;;;;;14.20;12.52;;;;;;;;;;5022243;28;95593;-77
2022/05/01 06:29:34;;;;;;;14.30;12.77;;;;;;;;;;5022729;28;94105;-77
2022/05/01 06:32:00;;;;;;;13.88;12.52;;;;;;;;;;5012449;28;92790;-78
2022/05/01 06:34:28;;;;;;;13.23;11.70;;;;;;;;;;5029976;27;93198;-79
2022/05/01 06:36:54;;;;;;;14.43;12.38;;;;;;;;;;5055975;27;94236;-81
2022/05/01 06:39:20;;;;;;;12.40;11.25;;;;;;;;;;5047894;27;93357;-80
2022/05/01 06:41:47;;;;;;;13.18;11.65;;;;;;;;;;5018721;27;95849;-81
2022/05/01 06:44:15;;;;;;;12.85;11.30;;;;;;;;;;5014669;28;92856;-81
2022/05/01 06:46:41;;;;;;;11.45;10.38;;;;;;;;;;5038110;27;93502;-81
2022/05/01 06:49:08;;;;;;;14.35;11.18;;;;;;;;;;5051900;27;94450;-83
2022/05/01 06:51:34;;;;;;;11.48;10.40;;;;;;;;;;5052476;27;92493;-83
2022/05/01 06:54:03;;;;;;;13.52;10.55;;;;;;;;;;5051764;27;93999;-82
2022/05/01 06:56:29;;;;;;;12.48;11.20;;;;;;;;;;5037562;27;94312;-82
2022/05/01 06:58:55;;;;;;;11.50;10.43;;;;;;;;;;5018915;28;91832;-82
2022/05/01 07:01:22;;;;;;;12.07;9.75;;;;;;;;;;5024650;28;93962;-83
2022/05/01 07:03:52;;;;;;;12.05;9.45;;;;;;;;;;5011411;28;93315;-82
2022/05/01 07:06:19;;;;;;;10.18;9.10;;;;;;;;;;5019341;28;94843;-82
2022/05/01 07:08:45;;;;;;;10.73;9.15;;;;;;;;;;5026401;27;93705;-82
2022/05/01 07:11:11;;;;;;;9.45;8.63;;;;;;;;;;5023523;27;92999;-82
2022/05/01 07:13:40;;;;;;;9.02;8.20;;;;;;;;;;5030624;27;93443;-81
2022/05/01 07:16:06;;;;;;;10.90;7.30;;;;;;;;;;5015858;28;94394;-80
2022/05/01 07:18:33;;;;;;;8.98;7.90;;;;;;;;;;5021115;28;94904;-80
2022/05/01 07:20:59;;;;;;;8.73;7.85;;;;;;;;;;5015341;28;94042;-80
2022/05/01 07:23:26;;;;;;;10.68;7.05;;;;;;;;;;5017522;28;93779;-80
2022/05/01 07:25:52;;;;;;;9.98;8.27;;;;;;;;;;5018693;28;93824;-81
2022/05/01 07:28:18;;;;;;;8.40;6.80;;;;;;;;;;5026318;28;94286;-80
2022/05/01 07:30:45;;;;;;;7.18;6.60;;;;;;;;;;5016418;28;94908;-81
2022/05/01 07:33:11;;;;;;;10.75;6.90;;;;;;;;;;5019744;28;96870;-81
2022/05/01 07:35:38;;;;;;;8.38;7.78;;;;;;;;;;5017112;28;94365;-82
2022/05/01 07:38:04;;;;;;;11.70;8.13;;;;;;;;;;5026030;28;92612;-82
2022/05/01 07:40:30;;;;;;;8.77;8.05;;;;;;;;;;5023949;28;94055;-81
2022/05/01 07:42:57;;;;;;;7.70;6.93;;;;;;;;;;5024671;28;93346;-81
2022/05/01 07:45:24;;;;;;;6.28;5.68;;;;;;;;;;5046147;27;94091;-81
2022/05/01 07:47:54;;;;;;;11.18;7.18;;;;;;;;;;5053585;27;93586;-81
2022/05/01 07:50:21;;;;;;;7.10;6.45;;;;;;;;;;5017233;28;92604;-81
2022/05/01 07:52:47;;;;;;;11.63;7.35;;;;;;;;;;5017343;27;94107;-81
2022/05/01 07:55:14;;;;;;;12.48;7.32;;;;;;;;;;5012476;28;95777;-80
2022/05/01 07:57:41;;;;;;;8.18;7.25;;;;;;;;;;5015608;28;94183;-84
2022/05/01 08:00:08;;;;;;;8.43;7.55;;;;;;;;;;5026646;28;93941;-78
2022/05/01 08:04:27;;;;;;;7.75;6.82;;;;;;;;;;5018935;27;94304;-77
2022/05/01 08:05:23;;;;;;;11.73;8.00;;;;;;;;;;5054245;27;92432;-77
2022/05/01 08:07:52;;;;;;;8.80;6.97;;;;;;;;;;5055760;27;94422;-77
2022/05/01 08:10:19;;;;;;;9.60;6.78;;;;;;;;;;5055916;27;92470;-77
2022/05/01 08:12:46;;;;;;;8.02;7.15;;;;;;;;;;5055288;27;93979;-77
2022/05/01 08:15:17;;;;;;;9.80;6.97;;;;;;;;;;5055406;27;93855;-77
2022/05/01 08:17:44;;;;;;;13.38;7.43;;;;;;;;;;5055572;27;92553;-78
2022/05/01 08:23:05;;;;;;;8.13;6.90;;;;;;;;;;5055967;27;94488;-77
2022/05/01 08:25:32;;;;;;;7.20;6.60;;;;;;;;;;5058312;27;92483;-77
2022/05/01 08:27:58;;;;;;;7.80;6.57;;;;;;;;;;5056033;27;93417;-77
2022/05/01 08:30:25;;;;;;;7.80;6.72;;;;;;;;;;5039604;27;92380;-77
2022/05/01 08:32:51;;;;;;;7.70;6.78;;;;;;;;;;5025954;28;94035;-77
2022/05/01 08:35:18;;;;;;;6.97;6.25;;;;;;;;;;5034805;28;92561;-78
2022/05/01 08:37:45;;;;;;;7.00;6.30;;;;;;;;;;5035131;28;91765;-77
2022/05/01 08:40:11;;;;;;;22.67;5.80;;;;;;;;;;5034437;28;92981;-78
2022/05/01 08:42:38;;;;;;;7.47;6.32;;;;;;;;;;5032555;28;94257;-77
2022/05/01 08:45:08;;;;;;;6.13;5.63;;;;;;;;;;5033293;28;95013;-78
2022/05/01 08:47:40;;;;;;;7.25;6.30;;;;;;;;;;5036698;28;96289;-78
2022/05/01 08:50:08;;;;;;;9.03;6.93;;;;;;;;;;5034761;28;92416;-77
2022/05/01 08:52:36;;;;;;;7.28;6.53;;;;;;;;;;5034219;28;93316;-77
2022/05/01 08:55:04;;;;;;;7.13;6.43;;;;;;;;;;5034128;28;93207;-77
2022/05/01 08:57:33;;;;;;;13.77;6.78;;;;;;;;;;5034666;28;92987;-77
2022/05/01 08:59:59;;;;;;;9.30;6.10;;;;;;;;;;5030757;28;93280;-77
2022/05/01 09:02:26;;;;;;;6.93;6.22;;;;;;;;;;5014029;28;93460;-77
2022/05/01 09:04:52;;;;;;;6.57;5.97;;;;;;;;;;5053921;27;92556;-77
2022/05/01 09:07:19;;;;;;;7.78;6.10;;;;;;;;;;5048446;27;93975;-78
2022/05/01 09:09:45;;;;;;;8.25;5.63;;;;;;;;;;5030496;28;95436;-77
2022/05/01 09:14:57;;;;;;;6.88;5.95;;;;;;;;;;5021266;27;94157;-77
2022/05/01 09:17:24;;;;;;;8.40;5.82;;;;;;;;;;5026255;28;92868;-77
2022/05/01 09:19:51;;;;;;;11.82;6.38;;;;;;;;;;5013696;28;93542;-77
2022/05/01 09:22:19;;;;;;;7.65;6.40;;;;;;;;;;5013779;28;94229;-77
2022/05/01 09:24:45;;;;;;;7.63;6.18;;;;;;;;;;5026419;28;92444;-77
2022/05/01 09:27:24;;;;;;;9.32;6.95;;;;;;;;;;5037514;28;91710;-76
2022/05/01 09:30:05;;;;;;;8.13;6.70;;;;;;;;;;5027793;28;94305;-77
2022/05/01 09:32:36;;;;;;;11.98;6.30;;;;;;;;;;5033636;28;93287;-78
2022/05/01 09:35:03;;;;;;;6.60;6.00;;;;;;;;;;5031804;27;95964;-77
2022/05/01 09:37:29;;;;;;;6.95;6.18;;;;;;;;;;5033042;27;92809;-78
2022/05/01 09:39:55;;;;;;;7.32;5.55;;;;;;;;;;5033376;28;94428;-78
2022/05/01 09:42:25;;;;;;;13.73;6.70;;;;;;;;;;5031409;27;94219;-78
2022/05/01 09:45:23;;;;;;;6.28;5.72;;;;;;;;;;5013329;28;93374;-77
2022/05/01 09:47:50;;;;;;;5.68;4.60;;;;;;;;;;4968985;28;93065;-78
2022/05/01 09:50:36;;;;;;;4.50;4.07;;;;;;;;;;5013263;28;94162;-77
2022/05/01 09:53:03;;;;;;;5.43;4.93;;;;;;;;;;5017551;28;91706;-77
2022/05/01 09:55:30;;;;;;;4.50;4.13;;;;;;;;;;5012480;28;94206;-77
2022/05/01 09:58:09;;;;;;;7.18;4.88;;;;;;;;;;5012951;28;92386;-78
2022/05/01 10:00:44;;;;;;;3.67;3.38;;;;;;;;;;5011660;28;94957;-77
2022/05/01 10:03:19;;;;;;;3.83;3.50;;;;;;;;;;5023868;27;92905;-77
2022/05/01 10:05:46;;;;;;;3.85;3.55;;;;;;;;;;5053140;27;92467;-77
2022/05/01 10:08:13;;;;;;;4.50;3.75;;;;;;;;;;5054192;27;93825;-77
2022/05/01 10:10:41;;;;;;;6.20;3.85;;;;;;;;;;5053758;27;94661;-77
2022/05/01 10:13:08;;;;;;;7.05;3.90;;;;;;;;;;5053381;27;92447;-77
2022/05/01 10:15:55;;;;;;;4.85;4.20;;;;;;;;;;5057258;27;93840;-77
2022/05/01 10:18:22;;;;;;;4.18;3.90;;;;;;;;;;5053701;27;92329;-77
2022/05/01 10:20:49;;;;;;;5.70;5.18;;;;;;;;;;5053942;27;93032;-77
2022/05/01 10:23:16;;;;;;;5.35;4.95;;;;;;;;;;5054478;27;94307;-77
2022/05/01 10:25:58;;;;;;;5.78;4.97;;;;;;;;;;5050988;27;94862;-78
2022/05/01 10:28:47;;;;;;;5.10;4.78;;;;;;;;;;5021817;28;95411;-76
2022/05/01 10:34:31;;;;;;;7.20;5.93;;;;;;;;;;5018014;28;93148;-77
2022/05/01 10:37:18;;;;;;;7.35;5.10;;;;;;;;;;5016860;28;93852;-76
2022/05/01 10:39:46;;;;;;;5.88;4.03;;;;;;;;;;5017937;28;93480;-74
2022/05/01 10:42:30;;;;;;;5.82;5.32;;;;;;;;;;5014416;28;94581;-77
2022/05/01 10:44:56;;;;;;;7.53;4.88;;;;;;;;;;5014806;28;93302;-77
2022/05/01 10:47:34;;;;;;;6.00;4.93;;;;;;;;;;5018045;27;94412;-77
2022/05/01 10:50:11;;;;;;;5.53;5.07;;;;;;;;;;5016483;28;94243;-78
2022/05/01 10:52:56;;;;;;;6.10;4.63;;;;;;;;;;5013885;27;99130;-78
2022/05/01 10:55:22;;;;;;;5.38;4.90;;;;;;;;;;5016521;27;94763;-77
2022/05/01 10:58:12;;;;;;;5.60;4.72;;;;;;;;;;5020109;27;94318;-77
2022/05/01 11:00:44;;;;;;;5.22;4.72;;;;;;;;;;5016432;28;94207;-78
2022/05/01 11:03:21;;;;;;;5.70;5.30;;;;;;;;;;5020935;27;92616;-77
2022/05/01 11:05:50;;;;;;;5.75;4.55;;;;;;;;;;5036511;28;94721;-77
2022/05/01 11:08:20;;;;;;;5.35;4.80;;;;;;;;;;5036023;28;92454;-77
2022/05/01 11:10:47;;;;;;;4.90;4.50;;;;;;;;;;5034962;28;93987;-76
2022/05/01 11:13:31;;;;;;;5.13;4.60;;;;;;;;;;5023258;28;94228;-77
2022/05/01 11:15:57;;;;;;;7.25;4.60;;;;;;;;;;5021281;28;93039;-77
2022/05/01 11:18:33;;;;;;;5.60;5.13;;;;;;;;;;5018860;28;95629;-77
2022/05/01 11:21:18;;;;;;;5.40;4.90;;;;;;;;;;5015743;28;94321;-77
2022/05/01 11:23:45;;;;;;;9.90;4.70;;;;;;;;;;5018972;28;92580;-77
2022/05/01 11:26:13;;;;;;;6.00;5.00;;;;;;;;;;5015399;28;94239;-77
2022/05/01 11:28:49;;;;;;;6.78;5.10;;;;;;;;;;5015174;28;92462;-77
2022/05/01 11:31:34;;;;;;;5.15;4.80;;;;;;;;;;5028587;28;93228;-76
2022/05/01 11:34:16;;;;;;;7.13;4.63;;;;;;;;;;5016892;28;94389;-76
2022/05/01 11:36:55;;;;;;;6.43;4.97;;;;;;;;;;5015443;28;93005;-76
2022/05/01 11:39:21;;;;;;;9.13;4.95;;;;;;;;;;5015562;28;92483;-75
2022/05/01 11:42:00;;;;;;;6.85;4.70;;;;;;;;;;5015363;28;93423;-75
2022/05/01 11:44:27;;;;;;;5.40;4.75;;;;;;;;;;5022439;28;94901;-74
2022/05/01 11:46:53;;;;;;;6.25;5.65;;;;;;;;;;5019848;28;94333;-74
2022/05/01 11:49:20;;;;;;;6.35;4.70;;;;;;;;;;5014981;28;92475;-75
2022/05/01 11:51:47;;;;;;;5.43;4.95;;;;;;;;;;5015805;28;92533;-75
2022/05/01 11:54:18;;;;;;;5.97;4.65;;;;;;;;;;5015719;28;93076;-75
2022/05/01 12:02:27;;;;;;;6.05;4.75;;;;;;;;;;5015395;28;92667;-76
2022/05/01 12:05:00;;;;;;;5.30;4.60;;;;;;;;;;5018254;28;93738;-76
2022/05/01 12:07:27;;;;;;;4.82;4.38;;;;;;;;;;5015395;28;93879;-75
2022/05/01 12:09:53;;;;;;;5.07;4.63;;;;;;;;;;5016899;28;97058;-75
2022/05/01 12:12:20;;;;;;;6.40;4.63;;;;;;;;;;5014676;28;96149;-76
2022/05/01 12:14:47;;;;;;;5.75;5.13;;;;;;;;;;5015263;28;92445;-76
2022/05/01 12:17:14;;;;;;;8.70;4.57;;;;;;;;;;5015397;28;92442;-76
2022/05/01 12:19:42;;;;;;;5.22;4.60;;;;;;;;;;5013883;28;93880;-76
2022/05/01 12:22:14;;;;;;;5.82;4.97;;;;;;;;;;5015358;28;94098;-76
2022/05/01 12:24:41;;;;;;;5.40;4.90;;;;;;;;;;5014337;28;92893;-75
2022/05/01 12:27:08;;;;;;;5.95;4.80;;;;;;;;;;5015398;28;93972;-77
2022/05/01 12:29:35;;;;;;;4.90;4.50;;;;;;;;;;5019549;28;96276;-75
2022/05/01 12:32:11;;;;;;;4.88;4.22;;;;;;;;;;5018789;27;92684;-77
2022/05/01 12:34:40;;;;;;;4.97;4.47;;;;;;;;;;5053748;27;97420;-76
2022/05/01 12:37:13;;;;;;;6.43;5.07;;;;;;;;;;5030404;27;92521;-76
2022/05/01 12:39:40;;;;;;;9.45;5.15;;;;;;;;;;5014015;28;93230;-75
2022/05/01 12:45:05;;;;;;;5.65;5.18;;;;;;;;;;5019022;28;94127;-74
2022/05/01 12:47:33;;;;;;;5.03;4.63;;;;;;;;;;5021499;28;94731;-75
2022/05/01 12:50:00;;;;;;;6.65;4.65;;;;;;;;;;5018567;28;94191;-73
2022/05/01 12:52:30;;;;;;;5.47;5.03;;;;;;;;;;5025863;28;93517;-74
2022/05/01 12:55:03;;;;;;;5.80;5.22;;;;;;;;;;5027828;28;93498;-72
2022/05/01 12:57:30;;;;;;;5.85;5.03;;;;;;;;;;5017947;28;94170;-73
2022/05/01 12:59:56;;;;;;;5.50;4.93;;;;;;;;;;5019379;27;95738;-72
2022/05/01 13:02:22;;;;;;;5.40;4.53;;;;;;;;;;5016338;28;93611;-73
2022/05/01 13:04:57;;;;;;;10.63;5.10;;;;;;;;;;5014793;28;92579;-75
2022/05/01 13:07:30;;;;;;;8.10;4.97;;;;;;;;;;5017113;28;94048;-75
2022/05/01 13:09:57;;;;;;;6.13;5.40;;;;;;;;;;5018769;28;93680;-75
2022/05/01 13:12:31;;;;;;;5.57;5.07;;;;;;;;;;5016644;28;94548;-75
2022/05/01 13:15:01;;;;;;;5.80;5.20;;;;;;;;;;5017875;28;94300;-75
2022/05/01 13:17:28;;;;;;;5.65;4.97;;;;;;;;;;5028545;28;94003;-76
2022/05/01 13:20:00;;;;;;;;;;;;;;;;;;5021824;28;93232;-76
2022/05/01 13:22:26;;;;;;;5.43;4.63;;;;;;;;;;5012868;27;123575;-75
2022/05/01 13:24:53;;;;;;;5.68;4.72;;;;;;;;;;5020669;28;94898;-75
2022/05/01 13:27:20;;;;;;;5.13;4.72;;;;;;;;;;5016969;27;95663;-75
2022/05/01 13:29:47;;;;;;;10.40;4.75;;;;;;;;;;5020622;27;94130;-75
2022/05/01 13:32:19;;;;;;;5.88;5.32;;;;;;;;;;5022805;27;93171;-75
2022/05/01 13:34:45;;;;;;;5.60;4.53;;;;;;;;;;5054766;27;94508;-76
2022/05/01 13:37:12;;;;;;;5.95;5.13;;;;;;;;;;5016380;27;93476;-76
2022/05/01 13:45:09;;;;;;;6.45;5.13;;;;;;;;;;5035592;27;92970;-76
2022/05/01 13:47:37;;;;;;;4.18;3.78;;;;;;;;;;5039351;27;93848;-76
2022/05/01 13:50:04;;;;;;;5.13;4.10;;;;;;;;;;5011471;28;96699;-76
2022/05/01 13:52:30;;;;;;;4.85;4.43;;;;;;;;;;5015623;27;93057;-74
2022/05/01 13:54:57;;;;;;;5.93;4.47;;;;;;;;;;5012809;28;93926;-78
2022/05/01 13:57:24;;;;;;;6.35;4.47;;;;;;;;;;5008793;28;94253;-76
2022/05/01 13:59:50;;;;;;;5.82;4.47;;;;;;;;;;5014080;28;93178;-78
2022/05/01 14:02:17;;;;;;;4.30;4.00;;;;;;;;;;5014637;27;94222;-77
2022/05/01 14:04:45;;;;;;;7.97;4.72;;;;;;;;;;5008879;28;95639;-76
2022/05/01 14:07:11;;;;;;;4.88;4.47;;;;;;;;;;5012930;28;93917;-76
2022/05/01 14:09:37;;;;;;;5.25;4.68;;;;;;;;;;5011800;28;95362;-77
2022/05/01 14:12:06;;;;;;;5.72;4.10;;;;;;;;;;5009409;28;93971;-77
2022/05/01 14:14:32;;;;;;;5.25;4.28;;;;;;;;;;5007762;28;96459;-77
2022/05/01 14:16:59;;;;;;;4.68;4.28;;;;;;;;;;5015483;28;93320;-77
2022/05/01 14:19:27;;;;;;;5.72;4.82;;;;;;;;;;5009012;28;94005;-77
2022/05/01 14:21:56;;;;;;;4.63;4.18;;;;;;;;;;5013670;28;94026;-77
2022/05/01 14:24:44;;;;;;;5.13;4.68;;;;;;;;;;5012765;28;92580;-76
2022/05/01 14:27:10;;;;;;;5.20;4.38;;;;;;;;;;5014508;28;94634;-77
2022/05/01 14:29:36;;;;;;;4.93;4.53;;;;;;;;;;5015758;28;94333;-77
2022/05/01 14:32:14;;;;;;;6.18;4.38;;;;;;;;;;5018254;27;92929;-77
2022/05/01 14:34:44;;;;;;;8.63;4.45;;;;;;;;;;5016525;28;94244;-77
2022/05/01 14:37:15;;;;;;;5.63;4.18;;;;;;;;;;5018285;28;94501;-77
2022/05/01 14:39:42;;;;;;;4.38;4.00;;;;;;;;;;5018864;28;96728;-77
2022/05/01 14:42:15;;;;;;;4.43;4.07;;;;;;;;;;5017154;28;94147;-77
2022/05/01 14:44:46;;;;;;;;;;;;;;;;;;5030057;28;95459;-78
2022/05/01 14:47:16;;;;;;;5.28;4.22;;;;;;;;;;5024856;28;122969;-77
2022/05/01 14:49:45;;;;;;;8.02;4.07;;;;;;;;;;5026748;28;95468;-78
2022/05/01 14:52:12;;;;;;;6.30;3.95;;;;;;;;;;5018842;28;94139;-77
2022/05/01 14:54:40;;;;;;;7.07;3.85;;;;;;;;;;5019115;28;94108;-77
2022/05/01 14:57:10;;;;;;;4.38;3.63;;;;;;;;;;5027126;27;93612;-77
2022/05/01 15:08:04;;;;;;;4.82;4.43;;;;;;;;;;5020119;28;94258;-77
2022/05/01 15:10:32;;;;;;;4.60;4.20;;;;;;;;;;5019810;28;92892;-77
2022/05/01 15:12:59;;;;;;;4.93;4.57;;;;;;;;;;5020097;28;92576;-77
2022/05/01 15:15:29;;;;;;;6.03;4.03;;;;;;;;;;5019015;28;93894;-77
2022/05/01 15:17:58;;;;;;;4.95;4.45;;;;;;;;;;5020124;28;93463;-78
2022/05/01 15:20:28;;;;;;;6.90;4.30;;;;;;;;;;5026598;28;92750;-78
2022/05/01 15:23:12;;;;;;;4.53;4.15;;;;;;;;;;5038399;28;93900;-78
2022/05/01 15:25:41;;;;;;;4.57;3.53;;;;;;;;;;5040036;28;93347;-77
2022/05/01 15:28:11;;;;;;;4.10;3.80;;;;;;;;;;5038570;28;92600;-77